createdAt,value
2023-02-03T00:02:09.941Z,1.85
2023-02-03T00:04:36.756Z,1.83
2023-02-03T00:07:04.274Z,1.69
2023-02-03T00:09:31.258Z,1.71
2023-02-03T00:11:58.318Z,1.60
2023-02-03T00:14:25.103Z,1.60
2023-02-03T00:16:52.173Z,1.58
2023-02-03T00:19:18.952Z,1.56
2023-02-03T00:21:46.184Z,1.56
2023-02-03T00:24:13.014Z,1.60
2023-02-03T00:26:43.751Z,1.56
2023-02-03T00:29:10.849Z,1.50
2023-02-03T00:31:38.001Z,1.49
2023-02-03T00:34:04.805Z,1.49
2023-02-03T00:36:31.901Z,1.44
2023-02-03T00:39:00.766Z,1.48
2023-02-03T00:41:31.548Z,1.42
2023-02-03T00:43:58.537Z,1.47
2023-02-03T00:46:25.607Z,1.46
2023-02-03T00:48:52.381Z,1.49
2023-02-03T00:51:19.504Z,1.45
2023-02-03T00:53:47.174Z,1.49
2023-02-03T00:56:14.365Z,1.43
2023-02-03T00:58:41.404Z,1.40
2023-02-03T01:01:08.649Z,1.38
2023-02-03T01:03:35.694Z,1.35
2023-02-03T01:06:13.361Z,1.32
2023-02-03T01:08:40.200Z,1.22
2023-02-03T01:11:13.391Z,1.29
2023-02-03T01:13:40.722Z,1.20
2023-02-03T01:16:12.440Z,1.27
2023-02-03T01:18:40.167Z,1.29
2023-02-03T01:21:12.791Z,1.22
2023-02-03T01:23:39.896Z,1.15
2023-02-03T01:26:11.016Z,1.13
2023-02-03T01:28:38.505Z,1.13
2023-02-03T01:31:14.067Z,1.16
2023-02-03T01:33:41.318Z,1.13
2023-02-03T01:36:10.016Z,1.14
2023-02-03T01:38:38.528Z,1.13
2023-02-03T01:41:09.684Z,1.12
2023-02-03T01:43:38.877Z,1.08
2023-02-03T01:46:35.529Z,1.10
2023-02-03T01:49:12.042Z,1.08
2023-02-03T01:51:42.141Z,1.18
2023-02-03T01:54:31.610Z,1.13
2023-02-03T01:57:11.843Z,1.11
2023-02-03T01:59:38.744Z,1.19
2023-02-03T02:02:07.146Z,1.12
2023-02-03T02:05:08.833Z,1.09
2023-02-03T02:07:37.779Z,0.98
2023-02-03T02:10:05.807Z,0.98
2023-02-03T02:12:33.180Z,0.93
2023-02-03T02:15:00.359Z,0.97
2023-02-03T02:17:49.246Z,1.15
2023-02-03T02:20:20.754Z,0.97
2023-02-03T02:23:23.113Z,0.96
2023-02-03T02:25:55.832Z,1.13
2023-02-03T02:28:50.665Z,1.00
2023-02-03T02:31:45.576Z,0.88
2023-02-03T02:34:12.656Z,0.77
2023-02-03T02:36:49.151Z,0.76
2023-02-03T02:39:46.748Z,0.70
2023-02-03T02:42:23.628Z,0.76
2023-02-03T02:44:56.312Z,0.74
2023-02-03T02:47:24.091Z,0.68
2023-02-03T02:49:51.087Z,0.72
2023-02-03T02:52:20.000Z,0.66
2023-02-03T02:54:52.591Z,0.76
2023-02-03T02:57:21.665Z,0.82
2023-02-03T02:59:48.908Z,0.77
2023-02-03T03:02:15.791Z,0.83
2023-02-03T03:04:46.761Z,0.81
2023-02-03T03:07:28.017Z,0.82
2023-02-03T03:10:06.903Z,0.77
2023-02-03T03:12:41.932Z,0.84
2023-02-03T03:15:14.444Z,0.70
2023-02-03T03:17:45.526Z,0.66
2023-02-03T03:20:19.644Z,0.68
2023-02-03T03:22:49.852Z,0.73
2023-02-03T03:25:18.321Z,0.80
2023-02-03T03:27:48.626Z,0.72
2023-02-03T03:30:18.445Z,0.66
2023-02-03T03:32:45.131Z,0.60
2023-02-03T03:35:12.525Z,0.60
2023-02-03T03:37:43.941Z,0.56
2023-02-03T03:40:14.007Z,0.54
2023-02-03T03:42:57.326Z,0.52
2023-02-03T03:45:33.164Z,0.47
2023-02-03T03:48:08.584Z,0.46
2023-02-03T03:50:38.502Z,0.59
2023-02-03T03:53:06.046Z,0.57
2023-02-03T03:55:35.580Z,0.52
2023-02-03T03:58:04.983Z,0.45
2023-02-03T04:00:33.621Z,0.48
2023-02-03T04:03:02.257Z,0.55
2023-02-03T04:05:29.232Z,0.63
2023-02-03T04:07:55.878Z,0.52
2023-02-03T04:10:30.498Z,0.53
2023-02-03T04:12:57.115Z,0.53
2023-02-03T04:15:24.000Z,0.53
2023-02-03T04:17:50.589Z,0.46
2023-02-03T04:20:24.045Z,0.46
2023-02-03T04:22:50.981Z,0.45
2023-02-03T04:25:17.914Z,0.53
2023-02-03T04:27:44.785Z,0.51
2023-02-03T04:30:12.546Z,0.56
2023-02-03T04:32:39.270Z,0.52
2023-02-03T04:35:07.008Z,0.53
2023-02-03T04:37:34.024Z,0.51
2023-02-03T04:40:00.983Z,0.51
2023-02-03T04:42:27.931Z,0.50
2023-02-03T04:44:54.823Z,0.62
2023-02-03T04:47:21.443Z,0.68
2023-02-03T04:49:48.425Z,0.76
2023-02-03T04:52:15.402Z,0.79
2023-02-03T04:54:42.332Z,0.79
2023-02-03T04:57:09.017Z,0.86
2023-02-03T04:59:35.935Z,0.88
2023-02-03T05:02:04.143Z,0.87
2023-02-03T05:04:31.516Z,0.89
2023-02-03T05:06:58.142Z,0.89
2023-02-03T05:09:25.384Z,0.93
2023-02-03T05:11:52.380Z,0.91
2023-02-03T05:14:19.836Z,0.93
2023-02-03T05:16:46.606Z,0.86
2023-02-03T05:19:13.540Z,0.88
2023-02-03T05:21:40.214Z,0.91
2023-02-03T05:24:08.025Z,1.00
2023-02-03T05:26:35.554Z,1.08
2023-02-03T05:29:02.626Z,1.12
2023-02-03T05:31:29.354Z,1.13
2023-02-03T05:33:56.249Z,1.20
2023-02-03T05:36:22.842Z,1.27
2023-02-03T05:38:49.807Z,1.25
2023-02-03T05:41:35.212Z,1.20
2023-02-03T05:44:02.106Z,1.20
2023-02-03T05:46:28.731Z,1.15
2023-02-03T05:48:55.632Z,1.25
2023-02-03T05:51:22.235Z,1.15
2023-02-03T05:53:49.145Z,1.16
2023-02-03T05:56:15.804Z,1.25
2023-02-03T05:58:42.709Z,1.23
2023-02-03T06:01:09.329Z,1.18
2023-02-03T06:03:36.271Z,1.09
2023-02-03T06:06:03.336Z,1.08
2023-02-03T06:08:30.201Z,1.03
2023-02-03T06:11:02.519Z,1.09
2023-02-03T06:13:29.480Z,1.08
2023-02-03T06:15:56.357Z,1.12
2023-02-03T06:18:23.580Z,1.06
2023-02-03T06:20:50.647Z,1.09
2023-02-03T06:23:19.035Z,1.13
2023-02-03T06:25:48.264Z,1.04
2023-02-03T06:28:15.363Z,1.11
2023-02-03T06:30:42.634Z,1.15
2023-02-03T06:33:09.360Z,1.07
2023-02-03T06:35:36.429Z,1.18
2023-02-03T06:38:03.079Z,1.12
2023-02-03T06:40:30.429Z,1.24
2023-02-03T06:42:57.315Z,1.14
2023-02-03T06:45:24.963Z,1.19
2023-02-03T06:47:51.730Z,1.20
2023-02-03T06:50:19.014Z,1.26
2023-02-03T06:52:45.645Z,1.44
2023-02-03T06:55:12.544Z,1.56
2023-02-03T06:57:46.811Z,1.71
2023-02-03T07:00:17.490Z,1.71
2023-02-03T07:02:45.558Z,1.56
2023-02-03T07:05:12.567Z,1.65
2023-02-03T07:07:39.570Z,1.63
2023-02-03T07:10:06.849Z,1.61
2023-02-03T07:12:33.489Z,1.55
2023-02-03T07:15:00.429Z,1.62
2023-02-03T07:17:27.198Z,1.69
2023-02-03T07:19:54.077Z,1.62
2023-02-03T07:22:20.672Z,1.68
2023-02-03T07:24:47.595Z,1.71
2023-02-03T07:27:14.231Z,1.75
2023-02-03T07:29:41.127Z,1.79
2023-02-03T07:32:07.843Z,1.74
2023-02-03T07:34:34.759Z,1.78
2023-02-03T07:37:02.074Z,1.71
2023-02-03T07:39:29.026Z,1.79
2023-02-03T07:41:55.682Z,1.85
2023-02-03T07:44:22.917Z,1.83
2023-02-03T07:46:49.531Z,1.76
2023-02-03T07:49:16.511Z,1.82
2023-02-03T07:51:43.102Z,1.78
2023-02-03T07:54:10.059Z,1.81
2023-02-03T07:56:36.695Z,1.75
2023-02-03T07:59:03.625Z,1.71
2023-02-03T08:01:31.432Z,1.76
2023-02-03T08:03:58.388Z,1.83
2023-02-03T08:06:25.031Z,1.86
2023-02-03T08:08:51.984Z,1.91
2023-02-03T08:11:18.627Z,1.98
2023-02-03T08:13:45.526Z,2.03
2023-02-03T08:16:12.145Z,1.99
2023-02-03T08:18:39.076Z,2.15
2023-02-03T08:21:05.773Z,1.99
2023-02-03T08:23:32.806Z,2.11
2023-02-03T08:25:59.421Z,1.94
2023-02-03T08:28:26.484Z,1.96
2023-02-03T08:30:53.148Z,1.92
2023-02-03T08:33:20.169Z,2.05
2023-02-03T08:35:50.459Z,2.02
2023-02-03T08:38:17.489Z,2.14
2023-02-03T08:40:44.132Z,2.27
2023-02-03T08:43:14.189Z,2.15
2023-02-03T08:45:40.881Z,2.17
2023-02-03T08:48:07.839Z,2.17
2023-02-03T08:50:34.481Z,2.53
2023-02-03T08:53:01.422Z,2.58
2023-02-03T08:55:28.064Z,2.57
2023-02-03T08:57:55.297Z,2.45
2023-02-03T09:00:22.106Z,2.58
2023-02-03T09:02:49.125Z,2.28
2023-02-03T09:05:17.909Z,2.12
2023-02-03T09:07:45.047Z,2.14
2023-02-03T09:10:11.723Z,2.17
2023-02-03T09:12:38.804Z,1.81
2023-02-03T09:15:05.821Z,1.91
2023-02-03T09:17:32.809Z,2.01
2023-02-03T09:19:59.612Z,2.14
2023-02-03T09:22:26.562Z,2.16
2023-02-03T09:24:53.272Z,1.75
2023-02-03T09:27:20.223Z,1.33
2023-02-03T09:29:46.852Z,1.30
2023-02-03T09:32:15.770Z,0.94
2023-02-03T09:34:42.572Z,0.99
2023-02-03T09:37:09.529Z,0.70
2023-02-03T09:39:36.173Z,0.63
2023-02-03T09:42:09.026Z,0.34
2023-02-03T09:44:44.224Z,0.37
2023-02-03T09:47:14.338Z,0.22
2023-02-03T09:49:40.925Z,0.48
2023-02-03T09:52:24.907Z,0.39
2023-02-03T09:54:57.455Z,0.44
2023-02-03T09:57:25.774Z,0.43
2023-02-03T09:59:54.537Z,0.34
2023-02-03T10:02:30.732Z,0.57
2023-02-03T10:04:57.408Z,0.61
2023-02-03T10:07:39.705Z,0.79
2023-02-03T10:10:18.905Z,1.04
2023-02-03T10:13:01.108Z,0.96
2023-02-03T10:15:46.559Z,0.73
2023-02-03T10:18:15.156Z,0.77
2023-02-03T10:20:44.997Z,0.93
2023-02-03T10:23:20.313Z,0.78
2023-02-03T10:25:57.297Z,0.79
2023-02-03T10:28:26.692Z,0.84
2023-02-03T10:30:57.337Z,0.94
2023-02-03T10:33:28.372Z,1.06
2023-02-03T10:36:01.292Z,0.96
2023-02-03T10:38:31.192Z,0.85
2023-02-03T10:40:57.880Z,1.01
2023-02-03T10:43:43.384Z,0.98
2023-02-03T10:46:10.067Z,0.91
2023-02-03T10:48:37.292Z,0.96
2023-02-03T10:51:04.356Z,0.82
2023-02-03T10:53:35.563Z,0.88
2023-02-03T10:56:08.360Z,0.93
2023-02-03T10:58:37.097Z,0.97
2023-02-03T11:01:13.790Z,1.02
2023-02-03T11:04:00.597Z,1.05
2023-02-03T11:06:27.647Z,0.99
2023-02-03T11:08:55.042Z,1.08
2023-02-03T11:11:24.490Z,0.90
2023-02-03T11:14:03.973Z,0.93
2023-02-03T11:16:32.179Z,0.98
2023-02-03T11:19:03.330Z,0.88
2023-02-03T11:21:39.369Z,0.96
2023-02-03T11:24:06.404Z,1.07
2023-02-03T11:26:35.929Z,1.12
2023-02-03T11:29:04.351Z,1.06
2023-02-03T11:31:37.965Z,1.02
2023-02-03T11:34:15.527Z,0.89
2023-02-03T11:36:42.178Z,0.79
2023-02-03T11:39:29.415Z,0.70
2023-02-03T11:41:56.720Z,0.58
2023-02-03T11:44:29.597Z,0.46
2023-02-03T11:46:58.726Z,0.70
2023-02-03T11:49:31.788Z,0.74
2023-02-03T11:51:58.368Z,0.72
2023-02-03T11:54:25.256Z,0.62
2023-02-03T11:57:18.316Z,0.42
2023-02-03T12:00:10.844Z,0.39
2023-02-03T12:02:58.356Z,0.55
2023-02-03T12:05:44.329Z,0.39
2023-02-03T12:08:29.273Z,0.59
2023-02-03T12:11:14.759Z,0.52
2023-02-03T12:13:59.924Z,0.29
2023-02-03T12:16:45.563Z,0.30
2023-02-03T12:19:38.819Z,0.32
2023-02-03T12:22:11.868Z,0.51
2023-02-03T12:24:56.700Z,0.56
2023-02-03T12:27:38.044Z,0.58
2023-02-03T12:30:24.993Z,0.38
2023-02-03T12:32:55.242Z,0.38
2023-02-03T12:35:27.714Z,0.28
2023-02-03T12:38:12.604Z,0.51
2023-02-03T12:40:47.690Z,0.44
2023-02-03T12:43:28.110Z,0.57
2023-02-03T12:45:57.173Z,0.48
2023-02-03T12:48:33.662Z,0.46
2023-02-03T12:51:02.493Z,0.41
2023-02-03T12:53:39.992Z,0.40
2023-02-03T12:56:12.034Z,0.50
2023-02-03T12:59:14.043Z,0.63
2023-02-03T13:01:44.686Z,0.74
2023-02-03T13:04:18.703Z,0.58
2023-02-03T13:06:48.306Z,0.66
2023-02-03T13:09:15.471Z,0.63
2023-02-03T13:11:54.134Z,0.45
2023-02-03T13:14:28.304Z,0.62
2023-02-03T13:16:57.400Z,0.64
2023-02-03T13:19:27.318Z,0.60
2023-02-03T13:21:54.035Z,0.66
2023-02-03T13:24:23.454Z,0.68
2023-02-03T13:26:54.107Z,0.65
2023-02-03T13:29:30.027Z,0.62
2023-02-03T13:32:02.907Z,0.85
2023-02-03T13:34:39.038Z,0.66
2023-02-03T13:37:31.612Z,0.71
2023-02-03T13:40:14.632Z,0.68
2023-02-03T13:42:52.946Z,0.97
2023-02-03T13:45:32.158Z,0.95
2023-02-03T13:48:22.552Z,1.05
2023-02-03T13:50:51.227Z,0.94
2023-02-03T13:53:19.322Z,0.86
2023-02-03T13:55:53.475Z,0.92
2023-02-03T13:58:22.021Z,1.05
2023-02-03T14:00:51.834Z,1.14
2023-02-03T14:03:38.795Z,1.28
2023-02-03T14:06:11.683Z,1.22
2023-02-03T14:08:38.289Z,1.25
2023-02-03T14:11:23.859Z,1.31
2023-02-03T14:13:51.320Z,1.33
2023-02-03T14:16:24.935Z,1.22
2023-02-03T14:18:51.678Z,1.53
2023-02-03T14:21:21.019Z,1.62
2023-02-03T14:23:55.479Z,1.54
2023-02-03T14:26:25.580Z,1.49
2023-02-03T14:28:53.929Z,1.54
2023-02-03T14:31:22.544Z,1.51
2023-02-03T14:33:49.316Z,1.51
2023-02-03T14:36:45.860Z,1.50
2023-02-03T14:39:18.798Z,1.60
2023-02-03T14:41:57.813Z,1.64
2023-02-03T14:44:33.308Z,1.50
2023-02-03T14:47:03.241Z,1.53
2023-02-03T14:49:29.829Z,1.54
2023-02-03T14:52:19.052Z,1.61
2023-02-03T14:54:55.256Z,1.54
2023-02-03T14:57:40.575Z,1.60
2023-02-03T15:00:07.639Z,1.69
2023-02-03T15:02:34.727Z,1.79
2023-02-03T15:05:13.427Z,1.81
2023-02-03T15:07:46.305Z,1.81
2023-02-03T15:10:18.924Z,1.70
2023-02-03T15:12:56.226Z,1.86
2023-02-03T15:15:22.975Z,1.97
2023-02-03T15:17:51.434Z,1.87
2023-02-03T15:20:26.113Z,2.05
2023-02-03T15:22:53.076Z,2.14
2023-02-03T15:25:21.988Z,2.06
2023-02-03T15:27:49.030Z,2.01
2023-02-03T15:30:17.040Z,2.04
2023-02-03T15:32:50.099Z,2.01
2023-02-03T15:35:18.887Z,2.08
2023-02-03T15:37:58.338Z,2.00
2023-02-03T15:40:30.751Z,2.14
2023-02-03T15:42:57.890Z,2.14
2023-02-03T15:45:30.679Z,2.09
2023-02-03T15:48:01.453Z,2.25
2023-02-03T15:50:36.007Z,2.24
2023-02-03T15:53:22.444Z,2.36
2023-02-03T15:55:54.875Z,2.30
2023-02-03T15:58:24.732Z,2.35
2023-02-03T16:00:56.026Z,2.32
2023-02-03T16:03:28.167Z,2.26
2023-02-03T16:05:55.257Z,2.33
2023-02-03T16:08:34.810Z,2.34
2023-02-03T16:11:01.676Z,2.26
2023-02-03T16:13:29.921Z,2.33
2023-02-03T16:16:08.425Z,2.24
2023-02-03T16:18:36.763Z,2.17
2023-02-03T16:21:06.573Z,2.14
2023-02-03T16:23:33.542Z,2.16
2023-02-03T16:26:02.975Z,2.12
2023-02-03T16:28:48.802Z,2.06
2023-02-03T16:31:40.300Z,2.01
2023-02-03T16:34:35.928Z,2.01
2023-02-03T16:37:29.958Z,1.95
2023-02-03T16:40:15.576Z,2.03
2023-02-03T16:43:00.998Z,2.06
2023-02-03T16:45:46.694Z,2.01
2023-02-03T16:48:32.081Z,1.96
2023-02-03T16:51:03.736Z,1.98
2023-02-03T16:53:31.240Z,2.08
2023-02-03T16:56:01.837Z,2.17
2023-02-03T16:58:28.688Z,2.13
2023-02-03T17:00:57.505Z,2.15
2023-02-03T17:03:25.753Z,2.20
2023-02-03T17:05:53.369Z,2.29
2023-02-03T17:08:21.616Z,2.22
2023-02-03T17:10:49.460Z,2.32
2023-02-03T17:13:17.802Z,2.42
2023-02-03T17:15:48.768Z,2.34
2023-02-03T17:18:15.651Z,2.48
2023-02-03T17:20:43.543Z,2.42
2023-02-03T17:23:10.546Z,2.56
2023-02-03T17:25:38.218Z,2.70
2023-02-03T17:28:08.733Z,2.95
2023-02-03T17:30:36.251Z,2.98
2023-02-03T17:33:04.238Z,3.08
2023-02-03T17:35:31.630Z,3.15
2023-02-03T17:37:58.521Z,3.21
2023-02-03T17:54:11.088Z,3.63
2023-02-03T17:56:38.036Z,3.71
2023-02-03T17:59:05.202Z,3.70
2023-02-03T18:01:32.262Z,3.74
2023-02-03T18:04:00.523Z,3.78
2023-02-03T18:06:28.440Z,3.83
2023-02-03T18:09:01.052Z,3.93
2023-02-03T18:11:31.315Z,3.89
2023-02-03T18:13:57.950Z,3.91
2023-02-03T18:16:27.957Z,3.97
2023-02-03T18:18:55.394Z,3.89
2023-02-03T18:21:23.480Z,3.90
2023-02-03T18:23:51.139Z,3.86
2023-02-03T18:26:20.972Z,3.87
2023-02-03T18:28:50.576Z,3.85
2023-02-03T18:31:17.715Z,3.96
2023-02-03T18:33:46.206Z,4.04
2023-02-03T18:36:13.778Z,4.06
2023-02-03T18:38:41.996Z,4.06
2023-02-03T18:41:11.517Z,4.10
2023-02-03T18:43:38.127Z,4.13
2023-02-03T18:46:15.809Z,4.13
2023-02-03T18:48:42.483Z,4.20
2023-02-03T18:51:10.205Z,4.36
2023-02-03T18:53:38.326Z,4.52
2023-02-03T18:56:06.305Z,4.64
2023-02-03T18:58:33.017Z,4.67
2023-02-03T19:01:00.639Z,4.62
2023-02-03T19:03:27.858Z,4.68
2023-02-03T19:05:54.908Z,4.60
2023-02-03T19:08:21.534Z,4.62
2023-02-03T19:10:52.696Z,4.72
2023-02-03T19:13:19.894Z,4.66
2023-02-03T19:15:47.664Z,4.59
2023-02-03T19:18:15.461Z,4.53
2023-02-03T19:20:42.929Z,4.63
2023-02-03T19:23:10.921Z,4.56
2023-02-03T19:25:38.249Z,4.45
2023-02-03T19:28:05.896Z,4.39
2023-02-03T19:30:33.723Z,4.45
2023-02-03T19:33:00.435Z,4.45
2023-02-03T19:35:27.386Z,4.35
2023-02-03T19:37:54.074Z,4.40
2023-02-03T19:40:21.029Z,4.31
2023-02-03T19:42:49.032Z,4.24
2023-02-03T19:45:15.958Z,4.16
2023-02-03T19:47:42.754Z,4.17
2023-02-03T19:50:10.056Z,4.05
2023-02-03T19:52:36.703Z,4.04
2023-02-03T19:55:03.938Z,3.93
2023-02-03T19:57:30.581Z,3.87
2023-02-03T19:59:57.648Z,3.79
2023-02-03T20:02:26.159Z,3.71
2023-02-03T20:04:53.292Z,3.64
2023-02-03T20:07:20.342Z,3.71
2023-02-03T20:09:48.001Z,3.69
2023-02-03T20:12:14.642Z,3.67
2023-02-03T20:14:44.529Z,3.64
2023-02-03T20:17:11.315Z,3.50
2023-02-03T20:19:38.229Z,3.45
2023-02-03T20:22:04.914Z,3.49
2023-02-03T20:24:31.880Z,3.52
2023-02-03T20:26:58.527Z,3.44
2023-02-03T20:29:25.464Z,3.44
2023-02-03T20:31:54.302Z,3.43
2023-02-03T20:34:21.370Z,3.43
2023-02-03T20:36:48.029Z,3.37
2023-02-03T20:39:19.165Z,3.33
2023-02-03T20:41:45.858Z,3.32
2023-02-03T20:44:13.349Z,3.27
2023-02-03T20:46:40.856Z,3.26
2023-02-03T20:49:14.989Z,3.26
2023-02-03T20:51:42.118Z,3.12
2023-02-03T20:54:14.524Z,3.16
2023-02-03T20:56:44.582Z,3.22
2023-02-03T20:59:18.413Z,3.32
2023-02-03T21:01:45.762Z,3.35
2023-02-03T21:04:34.582Z,3.28
2023-02-03T21:07:06.544Z,3.30
2023-02-03T21:09:33.200Z,3.33
2023-02-03T21:12:00.122Z,3.37
2023-02-03T21:14:36.020Z,3.45
2023-02-03T21:17:02.933Z,3.45
2023-02-03T21:19:31.645Z,3.45
2023-02-03T21:21:58.673Z,3.50
2023-02-03T21:24:25.463Z,3.53
2023-02-03T21:26:52.757Z,3.54
2023-02-03T21:29:24.290Z,3.53
2023-02-03T21:31:52.120Z,3.56
2023-02-03T21:34:27.796Z,3.58
2023-02-03T21:36:55.850Z,3.64
2023-02-03T21:39:33.012Z,3.58
2023-02-03T21:42:16.870Z,3.54
2023-02-03T21:44:44.228Z,3.43
2023-02-03T21:47:15.996Z,3.46
2023-02-03T21:49:42.610Z,3.57
2023-02-03T21:52:15.484Z,3.51
2023-02-03T21:54:44.237Z,3.58
2023-02-03T21:57:17.639Z,3.56
2023-02-03T21:59:47.276Z,3.58
2023-02-03T22:02:38.487Z,3.52
2023-02-03T22:05:05.299Z,3.45
2023-02-03T22:07:32.211Z,3.48
2023-02-03T22:09:58.882Z,3.43
2023-02-03T22:12:25.780Z,3.40
2023-02-03T22:14:52.363Z,3.34
2023-02-03T22:17:19.235Z,3.45
2023-02-03T22:19:45.828Z,3.52
2023-02-03T22:22:12.817Z,3.60
2023-02-03T22:24:39.474Z,3.67
2023-02-03T22:27:06.590Z,3.58
2023-02-03T22:29:33.395Z,3.57
2023-02-03T22:32:00.513Z,3.64
2023-02-03T22:34:27.402Z,3.64
2023-02-03T22:36:54.319Z,3.59
2023-02-03T22:39:20.958Z,3.58
2023-02-03T22:41:47.861Z,3.68
2023-02-03T22:44:16.188Z,3.66
2023-02-03T22:46:43.112Z,3.58
2023-02-03T22:49:10.522Z,3.65
2023-02-03T22:51:37.532Z,3.60
2023-02-03T22:54:04.227Z,3.57
2023-02-03T22:56:31.105Z,3.69
2023-02-03T22:58:57.794Z,3.68
2023-02-03T23:01:24.661Z,3.67
2023-02-03T23:03:51.288Z,3.71
2023-02-03T23:06:18.213Z,3.66
2023-02-03T23:08:44.872Z,3.65
2023-02-03T23:11:11.770Z,3.65
2023-02-03T23:13:38.339Z,3.54
2023-02-03T23:16:05.491Z,3.64
2023-02-03T23:18:32.109Z,3.56
2023-02-03T23:20:59.062Z,3.66
2023-02-03T23:23:25.660Z,3.67
2023-02-03T23:25:52.573Z,3.68
2023-02-03T23:28:19.330Z,3.66
2023-02-03T23:30:46.323Z,3.70
2023-02-03T23:33:12.971Z,3.69
2023-02-03T23:35:45.611Z,3.78
2023-02-03T23:38:16.230Z,3.80
2023-02-03T23:40:43.383Z,3.89
2023-02-03T23:43:10.200Z,4.01
2023-02-03T23:45:37.215Z,4.11
2023-02-03T23:48:04.260Z,4.03
2023-02-03T23:50:31.482Z,4.07
2023-02-03T23:52:58.542Z,4.16
2023-02-03T23:55:25.490Z,4.26
2023-02-03T23:57:52.136Z,4.19
